Time;durP1;ratioP1;P1;durP2;ratioP2;P2;SDS_P1;SDS_P2;PMS_P1;PMS_P2;Temp;Humidity;BMP_temperature;BMP_pressure;BME280_temperature;BME280_humidity;BME280_pressure;Samples;Min_cycle;Max_cycle;Signal;HPM_P1;HPM_P2
2021/10/15 00:03:30;;;;;;;0.10;0.10;;;;;;;11.86;93.13;101345.16;10211161;29;20030;-67
2021/10/15 00:08:30;;;;;;;0.10;0.10;;;;;;;11.83;93.48;101335.59;10212353;29;20046;-66
2021/10/15 00:13:30;;;;;;;0.10;0.10;;;;;;;11.83;93.07;101332.09;10210978;29;20162;-67
2021/10/15 00:18:31;;;;;;;0.10;0.10;;;;;;;11.83;93.31;101324.91;10210142;29;20074;-67
2021/10/15 00:23:32;;;;;;;0.10;0.10;;;;;;;11.85;93.02;101320.28;10224144;28;20034;-67
2021/10/15 00:28:32;;;;;;;0.00;0.00;;;;;;;11.90;92.28;101317.19;10209713;29;20027;-66
2021/10/15 00:33:32;;;;;;;0.10;0.10;;;;;;;11.92;92.06;101296.47;10252935;22;20129;-64
2021/10/15 00:38:32;;;;;;;0.10;0.10;;;;;;;11.95;91.97;101293.50;10355578;28;20076;-66
2021/10/15 00:43:33;;;;;;;0.10;0.10;;;;;;;11.94;92.05;101278.47;10354277;28;20029;-66
2021/10/15 00:48:33;;;;;;;0.00;0.00;;;;;;;11.94;92.29;101276.66;10335447;28;20105;-66
2021/10/15 00:53:33;;;;;;;0.00;0.00;;;;;;;11.95;92.03;101282.81;10348202;28;20021;-66
2021/10/15 00:58:34;;;;;;;0.10;0.10;;;;;;;11.97;91.39;101259.47;10347031;28;20014;-66
2021/10/15 01:03:35;;;;;;;0.03;0.03;;;;;;;12.00;91.33;101251.16;10362890;28;20296;-66
2021/10/15 01:08:39;;;;;;;0.10;0.10;;;;;;;12.00;91.21;101237.81;10343257;28;20097;-66
2021/10/15 01:13:40;;;;;;;0.10;0.10;;;;;;;11.99;91.17;101236.16;10343241;28;20030;-66
2021/10/15 01:18:42;;;;;;;0.00;0.00;;;;;;;11.98;91.34;101221.09;10347451;28;20030;-64
2021/10/15 01:23:43;;;;;;;0.10;0.10;;;;;;;11.96;91.63;101207.94;10354431;28;20492;-66
2021/10/15 01:28:43;;;;;;;0.10;0.10;;;;;;;11.97;91.80;101201.56;10346938;28;20021;-66
2021/10/15 01:33:44;;;;;;;0.10;0.10;;;;;;;11.95;92.20;101194.72;10346948;28;20442;-64
2021/10/15 01:38:44;;;;;;;0.10;0.10;;;;;;;11.94;92.33;101177.03;10338970;28;20497;-66
2021/10/15 01:43:44;;;;;;;0.10;0.10;;;;;;;11.93;92.63;101168.19;10355015;28;20018;-66
2021/10/15 01:48:45;;;;;;;0.10;0.10;;;;;;;11.89;92.83;101152.66;10345110;28;20253;-64
2021/10/15 01:53:45;;;;;;;0.10;0.10;;;;;;;11.84;92.86;101144.25;10345123;28;20035;-66
2021/10/15 01:58:45;;;;;;;0.10;0.10;;;;;;;11.82;92.92;101135.59;10338571;28;20029;-66
2021/10/15 02:03:46;;;;;;;0.10;0.10;;;;;;;11.81;93.10;101133.91;10347822;28;20027;-66
2021/10/15 02:08:46;;;;;;;0.10;0.10;;;;;;;11.82;93.06;101122.25;10360038;28;20079;-66
2021/10/15 02:13:46;;;;;;;0.10;0.10;;;;;;;11.81;92.94;101123.22;10358137;28;20033;-66
2021/10/15 02:18:47;;;;;;;0.10;0.10;;;;;;;11.83;92.82;101114.06;10348426;28;20112;-66
2021/10/15 02:23:47;;;;;;;0.10;0.10;;;;;;;11.84;92.59;101102.41;10347040;28;20022;-66
2021/10/15 02:28:48;;;;;;;0.10;0.10;;;;;;;11.84;92.65;101105.06;10349862;28;20018;-66
2021/10/15 02:33:48;;;;;;;0.10;0.10;;;;;;;11.86;92.51;101080.91;10356014;28;20037;-66
2021/10/15 02:38:49;;;;;;;0.10;0.10;;;;;;;11.87;92.51;101067.41;10358302;28;20376;-66
2021/10/15 02:43:49;;;;;;;0.10;0.10;;;;;;;11.89;92.74;101070.72;10355561;28;20087;-66
2021/10/15 02:48:49;;;;;;;0.10;0.10;;;;;;;11.89;92.66;101061.91;10355552;28;20236;-66
2021/10/15 02:53:50;;;;;;;0.10;0.10;;;;;;;11.88;92.76;101057.56;10351568;28;20021;-64
2021/10/15 02:58:50;;;;;;;0.10;0.10;;;;;;;11.90;92.56;101036.91;10354074;28;20025;-65
2021/10/15 03:03:51;;;;;;;0.10;0.10;;;;;;;11.91;92.85;101036.72;10352321;28;20478;-64
2021/10/15 03:08:51;;;;;;;0.10;0.10;;;;;;;11.91;92.65;101014.53;10368529;28;20014;-64
2021/10/15 03:13:51;;;;;;;0.10;0.10;;;;;;;11.91;92.70;101022.53;10357208;28;20026;-64
2021/10/15 03:18:52;;;;;;;0.10;0.10;;;;;;;11.91;93.14;101003.84;10359734;28;20493;-64
2021/10/15 03:23:52;;;;;;;0.10;0.10;;;;;;;11.89;93.31;100988.00;10354047;28;20029;-64
2021/10/15 03:28:53;;;;;;;0.10;0.10;;;;;;;11.91;93.14;100996.69;10356443;28;20027;-64
2021/10/15 03:33:53;;;;;;;0.10;0.10;;;;;;;11.92;93.41;100976.16;10353039;28;20295;-65
2021/10/15 03:38:53;;;;;;;0.10;0.10;;;;;;;11.95;93.18;100992.66;10352482;28;20030;-64
2021/10/15 03:43:53;;;;;;;0.10;0.10;;;;;;;11.96;92.93;100980.19;10347930;28;20070;-64
2021/10/15 03:48:54;;;;;;;0.10;0.10;;;;;;;11.96;92.81;100980.19;10334427;28;20026;-64
2021/10/15 03:53:54;;;;;;;0.00;0.00;;;;;;;11.97;92.72;100960.50;10350016;28;20056;-65
2021/10/15 03:58:54;;;;;;;0.10;0.10;;;;;;;11.98;92.65;100956.81;10343151;28;20084;-64
2021/10/15 04:03:55;;;;;;;0.10;0.10;;;;;;;11.99;92.11;100953.16;10357214;28;20026;-64
2021/10/15 04:08:55;;;;;;;0.10;0.10;;;;;;;12.02;91.34;100946.66;10363353;28;20328;-64
2021/10/15 04:13:56;;;;;;;0.03;0.03;;;;;;;12.04;91.41;100940.13;10363046;28;20029;-64
2021/10/15 04:18:56;;;;;;;0.10;0.10;;;;;;;12.06;91.21;100942.66;10350780;28;20026;-67
2021/10/15 04:23:57;;;;;;;0.10;0.10;;;;;;;12.05;90.79;100906.28;10357655;28;20477;-64
2021/10/15 04:28:57;;;;;;;0.17;0.17;;;;;;;12.08;90.54;100916.63;10355628;28;20030;-65
2021/10/15 04:33:57;;;;;;;0.10;0.10;;;;;;;12.07;90.41;100910.44;10331021;28;20026;-65
2021/10/15 04:38:57;;;;;;;0.10;0.10;;;;;;;12.06;90.65;100900.75;10360916;28;20468;-64
2021/10/15 04:43:58;;;;;;;0.10;0.10;;;;;;;12.05;90.97;100899.09;10355330;28;20026;-64
2021/10/15 04:48:58;;;;;;;0.10;0.10;;;;;;;12.04;91.04;100880.56;10358649;28;20461;-64
2021/10/15 04:53:59;;;;;;;0.10;0.10;;;;;;;12.00;91.03;100880.91;10346070;28;20031;-64
2021/10/15 04:58:59;;;;;;;0.10;0.10;;;;;;;11.95;91.24;100861.88;10359394;28;20388;-64
2021/10/15 05:03:59;;;;;;;0.10;0.10;;;;;;;11.97;91.46;100857.22;10337152;28;20028;-64
2021/10/15 05:14:01;;;;;;;0.10;0.10;;;;;;;11.92;91.89;100848.84;10362350;28;20026;-65
2021/10/15 05:19:02;;;;;;;0.10;0.10;;;;;;;11.90;92.42;100832.19;10345009;28;20038;-64
2021/10/15 05:24:02;;;;;;;0.10;0.10;;;;;;;11.87;93.24;100832.53;10346626;28;20030;-65
2021/10/15 05:29:03;;;;;;;0.03;0.03;;;;;;;11.82;93.72;100823.34;10347400;28;20014;-64
2021/10/15 05:34:03;;;;;;;0.03;0.03;;;;;;;11.79;94.05;100821.81;10351166;28;20030;-65
2021/10/15 05:39:04;;;;;;;0.10;0.10;;;;;;;11.74;94.60;100813.47;10350283;28;20018;-65
2021/10/15 05:44:05;;;;;;;0.10;0.10;;;;;;;11.70;95.60;100804.16;10357106;28;20036;-65
2021/10/15 05:49:08;;;;;;;0.08;0.08;;;;;;;11.66;96.53;100803.63;10351002;28;20040;-67
2021/10/15 05:54:11;;;;;;;0.10;0.10;;;;;;;11.62;97.21;100802.31;10349437;28;20029;-64
2021/10/15 05:59:12;;;;;;;0.10;0.10;;;;;;;11.59;97.80;100817.81;10353421;28;20581;-64
2021/10/15 06:14:36;;;;;;;0.10;0.10;;;;;;;11.46;100.00;100909.84;10363308;28;20496;-66
2021/10/15 06:19:52;;;;;;;0.00;0.00;;;;;;;11.10;97.70;100901.22;10366782;28;20025;-65
2021/10/15 06:24:54;;;;;;;0.10;0.10;;;;;;;10.73;98.36;100915.69;10357473;28;20030;-64
2021/10/15 06:29:54;;;;;;;0.10;0.10;;;;;;;10.52;99.04;100940.03;10357559;28;20029;-65
2021/10/15 06:34:54;;;;;;;0.10;0.10;;;;;;;10.35;99.36;100957.69;10366280;28;20369;-66
2021/10/15 06:39:55;;;;;;;0.10;0.10;;;;;;;10.24;99.56;100992.53;10365928;28;20030;-66
2021/10/15 06:44:55;;;;;;;0.00;0.00;;;;;;;10.14;99.54;100986.44;10363921;28;20018;-65
2021/10/15 06:49:56;;;;;;;0.10;0.10;;;;;;;10.06;100.00;101002.34;10365490;28;20022;-66
2021/10/15 06:54:56;;;;;;;0.10;0.10;;;;;;;10.00;100.00;101014.41;10366240;28;20481;-69
2021/10/15 06:59:57;;;;;;;0.10;0.10;;;;;;;9.96;100.00;101015.72;10354236;28;20022;-65
2021/10/15 07:04:57;;;;;;;0.10;0.10;;;;;;;9.94;100.00;101033.66;10352702;28;20420;-65
2021/10/15 07:10:00;;;;;;;0.00;0.00;;;;;;;9.97;100.00;101051.97;10343891;28;20026;-64
2021/10/15 07:15:00;;;;;;;0.10;0.10;;;;;;;9.88;96.80;101060.88;10367460;28;20481;-66
2021/10/15 07:20:01;;;;;;;0.00;0.00;;;;;;;9.76;96.31;101113.44;10367638;28;20034;-65
2021/10/15 07:25:02;;;;;;;0.00;0.00;;;;;;;9.63;96.35;101115.56;10352809;28;20041;-66
2021/10/15 07:30:07;;;;;;;0.00;0.00;;;;;;;9.52;97.09;101112.13;10364187;28;20014;-69
2021/10/15 07:35:08;;;;;;;0.10;0.10;;;;;;;9.45;97.19;101127.00;10360311;28;20485;-64
2021/10/15 07:40:10;;;;;;;0.00;0.00;;;;;;;9.42;98.90;101124.59;10370963;28;20041;-66
2021/10/15 07:45:10;;;;;;;0.10;0.10;;;;;;;9.39;98.94;101116.06;10370396;28;20026;-66
2021/10/15 07:50:10;;;;;;;0.00;0.00;;;;;;;9.41;99.68;101122.94;10368599;28;20027;-67
2021/10/15 07:55:11;;;;;;;0.00;0.00;;;;;;;9.47;100.00;101114.38;10357953;28;20274;-67
2021/10/15 08:00:12;;;;;;;0.10;0.10;;;;;;;9.49;100.00;101138.19;10336613;28;20324;-68
2021/10/15 08:05:14;;;;;;;0.00;0.00;;;;;;;9.51;100.00;101153.00;10355736;28;20030;-64
2021/10/15 08:10:15;;;;;;;0.00;0.00;;;;;;;9.52;100.00;101153.84;10370820;28;20112;-67
2021/10/15 08:15:16;;;;;;;0.10;0.10;;;;;;;9.54;100.00;101154.53;10366343;28;20137;-67
2021/10/15 08:20:19;;;;;;;0.00;0.00;;;;;;;9.59;100.00;101191.31;10329761;28;20045;-64
2021/10/15 08:25:20;;;;;;;0.03;0.03;;;;;;;9.60;100.00;101183.22;10353137;28;20017;-64
2021/10/15 08:30:20;;;;;;;0.10;0.10;;;;;;;9.60;100.00;101204.50;10361558;28;20034;-65
2021/10/15 08:35:22;;;;;;;0.08;0.08;;;;;;;9.61;100.00;101224.78;10355069;28;20499;-64
2021/10/15 08:40:22;;;;;;;0.10;0.10;;;;;;;9.70;100.00;101244.34;10344577;28;20030;-66
2021/10/15 08:45:28;;;;;;;0.10;0.10;;;;;;;9.78;100.00;101251.63;10361222;28;20022;-66
2021/10/15 08:50:29;;;;;;;0.10;0.10;;;;;;;9.82;100.00;101250.34;10368394;28;20025;-65
2021/10/15 08:55:30;;;;;;;0.00;0.00;;;;;;;9.86;99.97;101219.81;10349531;28;20050;-65
2021/10/15 09:00:33;;;;;;;0.03;0.03;;;;;;;9.98;99.92;101243.44;10328944;28;20027;-66
2021/10/15 09:05:34;;;;;;;0.08;0.08;;;;;;;10.18;100.00;101249.53;10346848;28;20030;-64
2021/10/15 09:10:35;;;;;;;0.10;0.10;;;;;;;10.41;99.02;101236.72;10368087;28;20088;-66
2021/10/15 09:15:36;;;;;;;0.10;0.10;;;;;;;10.43;97.45;101256.03;10336672;28;20022;-65
2021/10/15 09:20:36;;;;;;;0.10;0.10;;;;;;;10.44;97.03;101270.19;10357089;28;20022;-68
2021/10/15 09:25:40;;;;;;;0.08;0.08;;;;;;;10.43;96.74;101295.97;10367948;28;20026;-66
2021/10/15 09:30:43;;;;;;;0.00;0.00;;;;;;;10.37;96.54;101293.91;10349466;28;20015;-67
2021/10/15 09:35:44;;;;;;;0.00;0.00;;;;;;;10.84;97.90;101299.13;10336823;28;20040;-66
2021/10/15 09:40:47;;;;;;;0.00;0.00;;;;;;;11.76;96.89;101307.84;10366757;28;20026;-66
2021/10/15 09:45:49;;;;;;;0.10;0.10;;;;;;;12.56;94.28;101313.03;10367585;28;20104;-66
2021/10/15 09:51:16;;;;;;;0.10;0.10;;;;;;;12.95;89.78;101321.38;10364379;28;20266;-67
2021/10/15 09:56:49;;;;;;;0.00;0.00;;;;;;;12.64;87.69;101337.13;10366882;28;20034;-65
2021/10/15 10:01:50;;;;;;;0.10;0.10;;;;;;;12.94;89.46;101350.94;10355601;28;20026;-66
2021/10/15 10:06:50;;;;;;;0.10;0.10;;;;;;;13.19;87.98;101351.88;10344585;28;20084;-66
2021/10/15 10:11:51;;;;;;;0.10;0.10;;;;;;;13.34;86.45;101351.09;10343756;28;20064;-66
2021/10/15 10:16:54;;;;;;;0.10;0.10;;;;;;;13.43;85.49;101349.25;10352486;28;20050;-66
2021/10/15 10:21:54;;;;;;;0.10;0.10;;;;;;;13.42;85.40;101357.47;10360159;28;20027;-66
2021/10/15 10:26:55;;;;;;;0.10;0.10;;;;;;;13.44;83.31;101361.66;10365253;28;20026;-66
2021/10/15 10:32:13;;;;;;;0.10;0.10;;;;;;;13.65;83.27;101363.03;10360555;28;20488;-66
2021/10/15 10:37:15;;;;;;;0.10;0.10;;;;;;;13.21;83.77;101376.63;10366261;28;20026;-65
2021/10/15 10:42:24;;;;;;;0.10;0.10;;;;;;;12.68;85.92;101392.78;10365897;28;20562;-68
2021/10/15 10:47:26;;;;;;;0.00;0.00;;;;;;;12.17;80.57;101396.28;10354119;28;20025;-66
2021/10/15 10:52:26;;;;;;;0.10;0.10;;;;;;;12.09;82.03;101407.75;10371561;28;20130;-65
2021/10/15 10:57:38;;;;;;;0.05;0.05;;;;;;;12.16;82.05;101421.34;10373317;28;20086;-66
2021/10/15 11:02:50;;;;;;;0.10;0.10;;;;;;;12.26;78.90;101415.91;10369456;28;20477;-66
2021/10/15 11:08:26;;;;;;;0.10;0.10;;;;;;;12.38;79.51;101431.50;10363683;28;20187;-66
2021/10/15 11:13:32;;;;;;;0.10;0.10;;;;;;;12.24;80.08;101432.88;10352903;28;20477;-66
2021/10/15 11:18:33;;;;;;;0.10;0.10;;;;;;;12.00;79.73;101433.53;10358850;28;20436;-66
2021/10/15 11:23:39;;;;;;;0.10;0.10;;;;;;;12.02;77.38;101446.75;10342610;28;20022;-66
2021/10/15 11:28:39;;;;;;;0.10;0.10;;;;;;;12.33;77.84;101452.50;10344441;28;20014;-66
2021/10/15 11:33:40;;;;;;;0.10;0.10;;;;;;;12.43;73.00;101460.44;10340296;28;20022;-66
2021/10/15 11:38:40;;;;;;;0.10;0.10;;;;;;;12.11;72.64;101466.34;10348853;28;20022;-66
2021/10/15 11:43:43;;;;;;;0.10;0.10;;;;;;;11.77;75.53;101467.00;10353727;28;20469;-66
2021/10/15 11:48:46;;;;;;;0.10;0.10;;;;;;;11.67;76.24;101460.91;10350285;28;20030;-66
2021/10/15 11:53:58;;;;;;;0.00;0.00;;;;;;;11.69;74.44;101472.22;10357231;28;20022;-66
2021/10/15 11:59:01;;;;;;;0.00;0.00;;;;;;;11.90;74.79;101469.34;10340727;28;20595;-66
2021/10/15 12:04:08;;;;;;;0.10;0.10;;;;;;;12.13;74.90;101481.22;10366758;28;20014;-65
2021/10/15 12:09:11;;;;;;;0.10;0.10;;;;;;;12.29;73.08;101477.00;10368619;28;20079;-66
2021/10/15 12:14:20;;;;;;;0.10;0.10;;;;;;;12.32;71.68;101479.38;10335306;28;20022;-65
2021/10/15 12:19:35;;;;;;;0.10;0.10;;;;;;;12.44;75.58;101480.81;10356255;28;20496;-65
2021/10/15 12:24:46;;;;;;;0.10;0.10;;;;;;;12.52;73.66;101493.41;10358647;28;20026;-65
2021/10/15 12:29:52;;;;;;;0.10;0.10;;;;;;;12.59;75.50;101503.28;10354296;28;20421;-65
2021/10/15 12:34:58;;;;;;;0.05;0.05;;;;;;;12.63;75.00;101515.38;10349571;22;20050;-66
2021/10/15 12:40:24;;;;;;;0.10;0.10;;;;;;;12.66;76.63;101512.38;10306970;28;20521;-66
2021/10/15 12:45:55;;;;;;;0.05;0.05;;;;;;;12.73;75.34;101514.41;10287074;28;20023;-66
2021/10/15 12:51:04;;;;;;;0.10;0.10;;;;;;;12.82;76.31;101518.81;10255855;28;20070;-67
2021/10/15 12:56:12;;;;;;;0.10;0.10;;;;;;;12.84;76.37;101520.34;10260426;28;20019;-67
2021/10/15 13:01:19;;;;;;;0.10;0.10;;;;;;;12.83;76.03;101516.00;10285858;28;20058;-67
2021/10/15 13:06:19;;;;;;;0.00;0.00;;;;;;;12.74;75.07;101526.78;10283481;28;20026;-67
2021/10/15 13:11:21;;;;;;;0.10;0.10;;;;;;;12.69;76.93;101532.63;10287169;28;20031;-67
2021/10/15 13:16:22;;;;;;;0.10;0.10;;;;;;;12.65;74.79;101539.25;10285494;28;20401;-67
2021/10/15 13:21:22;;;;;;;0.10;0.10;;;;;;;12.71;75.77;101545.81;10246132;28;20542;-67
2021/10/15 13:26:23;;;;;;;0.10;0.10;;;;;;;12.96;75.74;101560.19;10249990;28;20023;-68
2021/10/15 13:31:23;;;;;;;0.10;0.10;;;;;;;13.21;74.10;101547.81;10247119;28;20025;-67
2021/10/15 13:36:25;;;;;;;0.10;0.10;;;;;;;13.09;73.85;101566.81;10242047;28;20046;-68
2021/10/15 13:41:51;;;;;;;0.10;0.10;;;;;;;12.80;74.51;101574.28;10252652;28;20160;-67
2021/10/15 13:46:59;;;;;;;0.10;0.10;;;;;;;12.52;76.01;101579.75;10242398;28;20537;-66
2021/10/15 13:52:00;;;;;;;0.00;0.00;;;;;;;12.18;79.54;101582.25;10240757;28;20011;-67
2021/10/15 13:57:06;;;;;;;0.10;0.10;;;;;;;11.89;80.69;101585.09;10243880;28;20062;-67
2021/10/15 14:02:10;;;;;;;0.00;0.00;;;;;;;11.81;81.03;101585.81;10245874;28;20031;-66
2021/10/15 14:07:10;;;;;;;0.10;0.10;;;;;;;11.82;81.90;101589.34;10245712;28;20019;-66
2021/10/15 14:12:11;;;;;;;0.10;0.10;;;;;;;11.89;81.72;101585.94;10243775;28;20463;-66
2021/10/15 14:17:12;;;;;;;0.00;0.00;;;;;;;11.95;80.13;101590.66;10239827;28;20031;-66
2021/10/15 14:22:12;;;;;;;0.10;0.10;;;;;;;11.99;79.36;101600.06;10246808;28;20406;-66
2021/10/15 14:27:12;;;;;;;0.10;0.10;;;;;;;12.08;78.53;101603.69;10250998;28;20020;-66
2021/10/15 14:32:13;;;;;;;0.10;0.10;;;;;;;12.18;77.65;101612.47;10243293;28;20063;-66
2021/10/15 14:37:13;;;;;;;0.10;0.10;;;;;;;12.17;77.77;101610.78;10245173;28;20039;-66
2021/10/15 14:42:14;;;;;;;0.10;0.10;;;;;;;12.01;77.35;101618.59;10253837;28;20421;-66
2021/10/15 14:47:14;;;;;;;0.10;0.10;;;;;;;11.86;77.79;101614.75;10251240;28;20031;-66
2021/10/15 14:52:18;;;;;;;0.07;0.07;;;;;;;11.99;77.75;101633.94;10249938;28;20033;-66
2021/10/15 14:57:18;;;;;;;0.10;0.10;;;;;;;12.24;77.20;101638.56;10248660;28;20544;-66
2021/10/15 15:02:18;;;;;;;0.10;0.10;;;;;;;12.36;76.84;101649.91;10258959;28;20027;-66
2021/10/15 15:07:19;;;;;;;0.10;0.10;;;;;;;12.15;77.95;101646.63;10240042;28;20086;-66
2021/10/15 15:12:19;;;;;;;0.10;0.10;;;;;;;11.84;77.52;101646.06;10246893;28;20275;-66
2021/10/15 15:17:20;;;;;;;0.10;0.10;;;;;;;11.61;78.62;101666.97;10252088;28;20047;-66
2021/10/15 15:22:20;;;;;;;0.10;0.10;;;;;;;11.45;78.79;101664.88;10259909;28;20082;-66
2021/10/15 15:27:21;;;;;;;0.10;0.10;;;;;;;11.33;79.74;101669.53;10251769;28;20080;-66
2021/10/15 15:32:21;;;;;;;0.03;0.03;;;;;;;11.18;80.17;101668.31;10240768;28;20478;-66
2021/10/15 15:37:21;;;;;;;0.10;0.10;;;;;;;11.02;80.90;101682.19;10272098;28;20428;-66
2021/10/15 15:42:22;;;;;;;0.10;0.10;;;;;;;10.91;81.17;101687.66;10271623;28;20031;-66
2021/10/15 15:47:27;;;;;;;0.10;0.10;;;;;;;10.82;82.14;101706.22;10261740;28;20035;-66
2021/10/15 15:52:27;;;;;;;0.10;0.10;;;;;;;10.71;82.52;101711.66;10268215;28;20035;-66
2021/10/15 15:57:28;;;;;;;0.10;0.10;;;;;;;10.63;83.85;101714.19;10268881;28;20470;-66
2021/10/15 16:02:28;;;;;;;0.10;0.10;;;;;;;10.52;83.69;101717.78;10260267;28;20031;-65
2021/10/15 16:07:29;;;;;;;0.00;0.00;;;;;;;10.41;83.84;101725.88;10260194;28;20023;-66
2021/10/15 16:12:29;;;;;;;0.00;0.00;;;;;;;10.27;83.96;101737.78;10263672;28;20054;-66
2021/10/15 16:17:29;;;;;;;0.00;0.00;;;;;;;10.15;85.03;101744.13;10256364;28;20389;-66
2021/10/15 16:22:29;;;;;;;0.00;0.00;;;;;;;9.97;85.18;101750.06;10260670;28;20046;-65
2021/10/15 16:27:30;;;;;;;0.10;0.10;;;;;;;9.84;86.13;101748.63;10266425;28;20023;-66
2021/10/15 16:32:30;;;;;;;0.05;0.05;;;;;;;9.70;86.75;101749.78;10270571;28;20486;-65
2021/10/15 16:37:32;;;;;;;0.10;0.10;;;;;;;9.56;87.32;101760.75;10274132;28;20494;-66
2021/10/15 16:42:32;;;;;;;0.00;0.00;;;;;;;9.43;88.38;101772.44;10269670;28;20061;-65
2021/10/15 16:47:32;;;;;;;0.00;0.00;;;;;;;9.32;88.64;101777.81;10260083;28;20033;-65
2021/10/15 16:52:33;;;;;;;0.10;0.10;;;;;;;9.21;89.02;101791.97;10263539;28;20022;-65
2021/10/15 16:57:34;;;;;;;0.10;0.10;;;;;;;9.11;89.34;101796.38;10276003;28;20199;-66
2021/10/15 17:02:34;;;;;;;0.10;0.10;;;;;;;9.02;89.45;101807.78;10264391;28;20027;-65
2021/10/15 17:07:34;;;;;;;0.00;0.00;;;;;;;8.95;89.63;101814.53;10265901;28;20033;-65
2021/10/15 17:12:34;;;;;;;0.10;0.10;;;;;;;8.88;90.12;101822.16;10272982;28;20015;-65
2021/10/15 17:17:35;;;;;;;0.00;0.00;;;;;;;8.81;90.89;101826.28;10272303;28;20034;-65
2021/10/15 17:22:35;;;;;;;0.10;0.10;;;;;;;8.78;91.34;101837.13;10261453;28;20026;-65
2021/10/15 17:27:36;;;;;;;0.00;0.00;;;;;;;8.71;91.09;101849.25;10260143;28;20033;-65
2021/10/15 17:32:37;;;;;;;0.10;0.10;;;;;;;8.61;91.53;101855.28;10273378;28;20266;-65
2021/10/15 17:37:37;;;;;;;0.00;0.00;;;;;;;8.58;92.22;101857.31;10260712;28;20031;-65
2021/10/15 17:42:37;;;;;;;0.08;0.08;;;;;;;8.50;92.50;101865.91;10266653;28;20023;-65
2021/10/15 17:47:38;;;;;;;0.10;0.10;;;;;;;8.43;92.69;101869.16;10257865;28;20026;-65
2021/10/15 17:52:38;;;;;;;0.00;0.00;;;;;;;8.42;93.24;101873.63;10260065;28;20015;-65
2021/10/15 17:57:41;;;;;;;0.00;0.00;;;;;;;8.42;94.08;101872.78;10266712;28;20038;-65
2021/10/15 18:02:42;;;;;;;0.00;0.00;;;;;;;8.49;94.83;101884.59;10262130;28;20027;-65
2021/10/15 18:07:42;;;;;;;0.00;0.00;;;;;;;8.56;94.61;101901.75;10255820;28;20525;-65
2021/10/15 18:12:42;;;;;;;0.10;0.10;;;;;;;8.60;94.84;101897.88;10268871;28;20408;-65
2021/10/15 18:17:43;;;;;;;0.00;0.00;;;;;;;8.61;94.26;101902.25;10261677;28;20034;-65
2021/10/15 18:22:43;;;;;;;0.00;0.00;;;;;;;8.63;94.08;101905.59;10258290;28;20046;-65
2021/10/15 18:27:44;;;;;;;0.00;0.00;;;;;;;8.65;94.18;101909.00;10257549;28;20070;-65
2021/10/15 18:32:44;;;;;;;0.00;0.00;;;;;;;8.64;94.30;101902.00;10273650;28;20026;-65
2021/10/15 18:37:44;;;;;;;0.00;0.00;;;;;;;8.56;94.19;101905.25;10313446;22;20505;-66
2021/10/15 18:42:45;;;;;;;0.00;0.00;;;;;;;8.51;94.64;101915.38;10322735;28;20072;-66
2021/10/15 18:47:46;;;;;;;0.10;0.10;;;;;;;8.49;95.26;101911.16;10318860;28;20023;-65
2021/10/15 18:52:46;;;;;;;0.10;0.10;;;;;;;8.39;95.02;101917.19;10314085;28;20113;-66
2021/10/15 18:57:46;;;;;;;0.00;0.00;;;;;;;8.32;95.29;101923.03;10319660;28;20429;-66
2021/10/15 19:02:47;;;;;;;0.00;0.00;;;;;;;8.23;95.46;101921.97;10325381;28;20026;-66
2021/10/15 19:07:47;;;;;;;0.10;0.10;;;;;;;8.13;96.03;101924.44;10320819;28;20034;-67
2021/10/15 19:12:50;;;;;;;0.00;0.00;;;;;;;8.08;95.66;101923.94;10322581;28;20026;-66
2021/10/15 19:17:51;;;;;;;0.00;0.00;;;;;;;8.07;96.72;101929.38;10321817;28;20409;-66
2021/10/15 19:22:52;;;;;;;0.07;0.07;;;;;;;8.09;96.42;101935.44;10329025;28;20033;-65
2021/10/15 19:27:52;;;;;;;0.00;0.00;;;;;;;8.13;97.10;101942.19;10326805;28;20400;-66
2021/10/15 19:32:52;;;;;;;0.10;0.10;;;;;;;8.20;97.49;101951.34;10328099;28;20018;-66
2021/10/15 19:37:53;;;;;;;0.00;0.00;;;;;;;8.32;97.79;101969.03;10325630;28;20273;-66
2021/10/15 19:42:53;;;;;;;0.00;0.00;;;;;;;8.45;97.68;101965.47;10331896;28;20266;-66
2021/10/15 19:47:53;;;;;;;0.00;0.00;;;;;;;8.57;97.31;101953.91;10332505;28;20261;-66
2021/10/15 19:52:54;;;;;;;0.00;0.00;;;;;;;8.61;97.92;101966.00;10333126;28;20398;-65
2021/10/15 19:57:54;;;;;;;0.00;0.00;;;;;;;8.58;97.16;101948.47;10325172;28;20019;-65
2021/10/15 20:02:55;;;;;;;0.00;0.00;;;;;;;8.56;97.40;101947.75;10331285;28;20401;-65
2021/10/15 20:07:55;;;;;;;0.00;0.00;;;;;;;8.46;97.36;101962.69;10325893;28;20037;-65
2021/10/15 20:12:55;;;;;;;0.00;0.00;;;;;;;8.34;97.53;101971.56;10331871;28;20284;-65
2021/10/15 20:17:56;;;;;;;0.00;0.00;;;;;;;8.22;97.34;101975.16;10320719;28;20037;-65
2021/10/15 20:22:56;;;;;;;0.00;0.00;;;;;;;8.08;96.88;101977.00;10327257;28;20037;-65
2021/10/15 20:27:56;;;;;;;0.00;0.00;;;;;;;8.02;97.77;101987.25;10329695;28;20022;-65
2021/10/15 20:32:57;;;;;;;0.10;0.10;;;;;;;8.05;98.01;101994.97;10329826;28;21407;-65
2021/10/15 20:37:59;;;;;;;0.00;0.00;;;;;;;8.10;98.69;102008.75;10324925;28;20030;-65
2021/10/15 20:43:00;;;;;;;0.10;0.10;;;;;;;8.14;98.86;102003.13;10325606;28;20038;-65
2021/10/15 20:48:00;;;;;;;0.10;0.10;;;;;;;8.20;97.89;102016.88;10328959;28;20026;-66
2021/10/15 20:53:04;;;;;;;0.10;0.10;;;;;;;8.18;97.64;102014.34;10329080;28;20033;-65
2021/10/15 20:58:04;;;;;;;0.10;0.10;;;;;;;8.12;96.46;102010.34;10328279;28;20045;-65
2021/10/15 21:03:05;;;;;;;0.00;0.00;;;;;;;8.08;96.88;102023.94;10326283;28;20073;-65
2021/10/15 21:08:05;;;;;;;0.00;0.00;;;;;;;8.09;97.38;102029.16;10327822;28;20807;-65
2021/10/15 21:13:06;;;;;;;0.00;0.00;;;;;;;8.14;98.00;102028.78;10326648;28;20481;-66
2021/10/15 21:18:06;;;;;;;0.00;0.00;;;;;;;8.20;97.70;102017.72;10321049;28;20030;-65
2021/10/15 21:23:06;;;;;;;0.00;0.00;;;;;;;8.23;97.36;102025.47;10325375;28;20272;-65
2021/10/15 21:28:07;;;;;;;0.00;0.00;;;;;;;8.30;96.95;102039.13;10313867;28;20084;-66
2021/10/15 21:33:07;;;;;;;0.00;0.00;;;;;;;8.32;97.63;102048.66;10327890;28;20041;-65
2021/10/15 21:38:07;;;;;;;0.00;0.00;;;;;;;8.32;97.73;102042.50;10323202;28;20037;-65
2021/10/15 21:43:09;;;;;;;0.00;0.00;;;;;;;8.37;96.77;102045.66;10326118;28;20356;-65
2021/10/15 21:48:09;;;;;;;0.00;0.00;;;;;;;8.40;97.72;102058.72;10325133;28;20470;-65
2021/10/15 21:53:10;;;;;;;0.00;0.00;;;;;;;8.44;96.30;102054.06;10322077;28;20031;-65
2021/10/15 21:58:10;;;;;;;0.00;0.00;;;;;;;8.46;96.93;102050.31;10325163;28;20018;-66
2021/10/15 22:03:10;;;;;;;0.05;0.05;;;;;;;8.47;97.34;102045.88;10324957;28;20117;-66
2021/10/15 22:08:10;;;;;;;0.10;0.10;;;;;;;8.47;97.05;102048.53;10323328;28;20034;-66
2021/10/15 22:13:11;;;;;;;0.00;0.00;;;;;;;8.41;97.66;102063.09;10324822;28;20396;-65
2021/10/15 22:18:11;;;;;;;0.05;0.05;;;;;;;8.30;98.23;102065.66;10322425;28;20659;-66
2021/10/15 22:23:12;;;;;;;0.00;0.00;;;;;;;8.20;97.07;102065.47;10323402;28;20158;-65
2021/10/15 22:28:12;;;;;;;0.10;0.10;;;;;;;8.12;97.64;102058.09;10324410;28;20026;-65
2021/10/15 22:33:12;;;;;;;0.10;0.10;;;;;;;8.14;98.52;102060.63;10313251;28;20031;-66
2021/10/15 22:38:13;;;;;;;0.03;0.03;;;;;;;8.16;98.88;102067.53;10289251;28;1048486;-65
2021/10/15 22:43:13;;;;;;;0.00;0.00;;;;;;;8.23;99.11;102064.41;10325672;28;20057;-66
2021/10/15 22:48:14;;;;;;;0.00;0.00;;;;;;;8.26;98.10;102058.88;10327278;28;20018;-65
2021/10/15 22:53:14;;;;;;;0.07;0.07;;;;;;;8.22;97.80;102054.78;10293280;28;20301;-65
2021/10/15 22:58:15;;;;;;;0.00;0.00;;;;;;;8.11;97.77;102050.25;10291942;28;20286;-65
2021/10/15 23:03:15;;;;;;;0.10;0.10;;;;;;;8.00;98.77;102059.03;10313807;28;20401;-66
2021/10/15 23:08:15;;;;;;;0.03;0.03;;;;;;;7.96;99.39;102057.53;10330162;28;20022;-65
2021/10/15 23:13:15;;;;;;;0.08;0.08;;;;;;;7.94;100.00;102057.66;10331395;28;20026;-65
2021/10/15 23:18:16;;;;;;;0.00;0.00;;;;;;;7.95;99.96;102058.50;10331147;28;20469;-66
2021/10/15 23:23:16;;;;;;;0.10;0.10;;;;;;;7.95;99.90;102061.16;10331984;28;20034;-65
2021/10/15 23:28:16;;;;;;;0.00;0.00;;;;;;;7.96;100.00;102064.66;10329697;28;20030;-65